首页
METAR-TAF:

METAR-TAF

机场 :

本-古里安国际机场

特拉维夫 / 本·古里安, 以色列

纬度: 32-00N, 经度: 034-54E, 海拔: 40米

当前天气观测

该预报发布于19分钟前的06:20 UTC
风速3节,风向多变
温度 26°C
湿度 79%
气压 1017 hPa
能見度: 9000
少量云层高于1700英尺

METAR: LLBG 170620Z VRB03KT 9000 FEW017 26/22 Q1017 NOSIG

时间: 09:39 (06:39 UTC)

预报

该预报发布于1小时和31分钟前的05:08 UTC
预报有效从17日的 06点(UTC)到 18日的 06点(UTC)
风速6节,风向西转西南
能见度10公里或以上
散云层高于2000英尺
成为
从 17日的 08点(UTC)到 17日的 10点(UTC)
风速12节,风向西转西北
少量云层高于3000英尺
成为
从 17日的 16点(UTC)到 17日的 18点(UTC)
风速4节,风向多变
散云层高于2500英尺
短暂存在
从 17日的 21点(UTC)到 18日的 06点(UTC)
多云层高于2000英尺

TAF: LLBG 170508Z 1706/1806 25006KT 9999 SCT020 BECMG 1708/1710 30012KT FEW030 BECMG 1716/1718 VRB04KT SCT025 TEMPO 1721/1806 BKN020 TX29/1710Z TN21/1803Z

超过4000个机场的气象观测和天气预报(METAR&TAF报告)。

可查询的气象台以黄色和红色小点在地图上表示。

将鼠标移到小点上方,可查看气象台名称。

然后点击查看天气观测和预报。

如需切换地图:点击带黑十字的绿色按钮放大地图;点击带横线的绿色按钮缩小地图;或者点击绿色箭头查看邻近地区的地图。


METAR-TAF: